Time;durP1;ratioP1;P1;durP2;ratioP2;P2;SDS_P1;SDS_P2;PMS_P1;PMS_P2;Temp;Humidity;BMP_temperature;BMP_pressure;BME280_temperature;BME280_humidity;BME280_pressure;Samples;Min_cycle;Max_cycle;Signal;HPM_P1;HPM_P2
2023/06/13 00:04:57;;;;;;;;;;;;;;;23.96;42.16;95412.63;10304604;28;2093;-66
2023/06/13 00:09:57;;;;;;;;;;;;;;;23.96;41.96;95412.63;10296508;28;1914;-66
2023/06/13 00:15:00;;;;;;;;;;;;;;;23.96;41.90;95412.63;10293131;28;2021;-66
2023/06/13 00:20:01;;;;;;;;;;;;;;;23.96;42.02;95404.69;10295393;28;1941;-66
2023/06/13 00:25:02;;;;;;;;;;;;;;;23.95;42.11;95400.44;10297244;28;1891;-66
2023/06/13 00:30:02;;;;;;;;;;;;;;;23.95;41.99;95400.44;10283626;28;2161;-66
2023/06/13 00:35:03;;;;;;;;;;;;;;;23.95;42.09;95395.16;10301750;28;2316;-65
2023/06/13 00:40:05;;;;;;;;;;;;;;;23.95;42.11;95387.22;10293750;28;4503;-66
2023/06/13 00:45:21;;;;;;;;;;;;;;;23.95;41.86;95383.78;10291663;28;2034;-66
2023/06/13 00:50:26;;;;;;;;;;;;;;;23.94;42.23;95377.72;10290891;28;2169;-66
2023/06/13 00:55:27;;;;;;;;;;;;;;;23.94;42.08;95361.84;10302142;28;2027;-65
2023/06/13 01:00:27;;;;;;;;;;;;;;;23.94;41.96;95364.50;10298844;28;1932;-65
2023/06/13 01:05:28;;;;;;;;;;;;;;;23.94;41.97;95361.84;10298518;28;2008;-63
2023/06/13 01:10:29;;;;;;;;;;;;;;;23.94;41.94;95359.19;10299757;28;2004;-65
2023/06/13 01:15:31;;;;;;;;;;;;;;;23.93;41.98;95344.38;10296175;28;1943;-66
2023/06/13 01:20:32;;;;;;;;;;;;;;;23.94;41.73;95345.16;10296118;28;1915;-65
2023/06/13 01:25:42;;;;;;;;;;;;;;;23.93;42.00;95344.38;10296580;28;1980;-65
2023/06/13 01:30:42;;;;;;;;;;;;;;;23.94;41.63;95330.06;10292179;28;2052;-64
2023/06/13 01:35:42;;;;;;;;;;;;;;;23.94;41.82;95331.94;10308867;28;2260;-66
2023/06/13 01:40:42;;;;;;;;;;;;;;;23.93;41.92;95331.13;10284654;28;4534;-66
2023/06/13 01:45:43;;;;;;;;;;;;;;;23.93;41.69;95325.06;10301444;28;2220;-66
2023/06/13 01:50:50;;;;;;;;;;;;;;;23.92;41.72;95326.94;10296005;28;2303;-66
2023/06/13 01:55:52;;;;;;;;;;;;;;;23.93;41.73;95327.72;10302600;28;1983;-66
2023/06/13 02:00:55;;;;;;;;;;;;;;;23.91;41.63;95320.06;10293222;28;1981;-66
2023/06/13 02:05:55;;;;;;;;;;;;;;;23.92;41.73;95315.56;10279074;28;1944;-66
2023/06/13 02:10:55;;;;;;;;;;;;;;;23.91;41.47;95309.50;10300150;28;1971;-66
2023/06/13 02:15:56;;;;;;;;;;;;;;;23.91;41.35;95304.19;10308881;28;1968;-66
2023/06/13 02:20:56;;;;;;;;;;;;;;;23.92;41.47;95289.09;10301875;28;2213;-66
2023/06/13 02:25:56;;;;;;;;;;;;;;;23.90;41.29;95294.72;10282635;28;2007;-66
2023/06/13 02:30:57;;;;;;;;;;;;;;;23.90;41.46;95297.34;10304988;28;1935;-66
2023/06/13 02:35:57;;;;;;;;;;;;;;;23.91;41.49;95293.59;10296393;28;1867;-66
2023/06/13 02:40:59;;;;;;;;;;;;;;;23.91;41.39;95287.53;10293187;28;4606;-66
2023/06/13 02:46:00;;;;;;;;;;;;;;;23.89;41.26;95287.06;10303458;28;1974;-64
2023/06/13 02:51:00;;;;;;;;;;;;;;;23.89;41.04;95285.19;10304832;28;1890;-66
2023/06/13 02:56:01;;;;;;;;;;;;;;;23.88;41.23;95286.28;10300420;28;1870;-66
2023/06/13 03:01:02;;;;;;;;;;;;;;;23.88;41.18;95291.59;10303483;28;2114;-66
2023/06/13 03:06:02;;;;;;;;;;;;;;;23.88;41.18;95291.59;10302520;28;1949;-66
2023/06/13 03:11:02;;;;;;;;;;;;;;;23.88;40.85;95283.66;10301106;28;1887;-66
2023/06/13 03:16:03;;;;;;;;;;;;;;;23.88;40.84;95288.94;10279174;28;1897;-66
2023/06/13 03:21:03;;;;;;;;;;;;;;;23.88;41.05;95282.84;10298781;28;1866;-66
2023/06/13 03:26:06;;;;;;;;;;;;;;;23.88;40.91;95293.44;10294848;28;2287;-66
2023/06/13 03:31:07;;;;;;;;;;;;;;;23.86;41.11;95285.81;10300188;28;1979;-69
2023/06/13 03:36:07;;;;;;;;;;;;;;;23.86;40.90;95296.41;10303049;28;1875;-67
2023/06/13 03:41:08;;;;;;;;;;;;;;;23.86;40.91;95296.41;10298454;28;4544;-67
2023/06/13 03:46:08;;;;;;;;;;;;;;;23.86;41.00;95295.63;10297316;28;2114;-66
2023/06/13 03:51:08;;;;;;;;;;;;;;;23.86;40.87;95296.41;10303214;28;1862;-66
2023/06/13 03:56:10;;;;;;;;;;;;;;;23.85;40.93;95294.81;10293608;28;1918;-66
2023/06/13 04:01:10;;;;;;;;;;;;;;;23.84;40.92;95298.56;10294863;28;2072;-65
2023/06/13 04:06:11;;;;;;;;;;;;;;;23.86;40.69;95298.25;10300901;28;1989;-66
2023/06/13 04:11:11;;;;;;;;;;;;;;;23.85;40.91;95305.41;10297977;28;1870;-67
2023/06/13 04:16:11;;;;;;;;;;;;;;;23.85;40.88;95305.41;10296219;28;1902;-64
2023/06/13 04:21:12;;;;;;;;;;;;;;;23.84;40.64;95308.38;10296361;28;2256;-63
2023/06/13 04:26:12;;;;;;;;;;;;;;;23.83;40.45;95302.28;10304112;28;1982;-66
2023/06/13 04:31:13;;;;;;;;;;;;;;;23.84;40.51;95306.50;10301990;28;1886;-66
2023/06/13 04:36:13;;;;;;;;;;;;;;;23.85;40.64;95316.00;10296719;28;1899;-66
2023/06/13 04:41:14;;;;;;;;;;;;;;;23.86;40.84;95333.47;10297638;28;4456;-65
2023/06/13 04:46:18;;;;;;;;;;;;;;;23.84;40.66;95324.25;10297384;28;1960;-65
2023/06/13 04:51:21;;;;;;;;;;;;;;;23.84;40.78;95321.59;10287129;28;1907;-65
2023/06/13 04:56:21;;;;;;;;;;;;;;;23.85;41.02;95323.16;10295940;28;1906;-64
2023/06/13 05:01:26;;;;;;;;;;;;;;;23.87;41.20;95308.53;10297316;28;1917;-66
2023/06/13 05:06:27;;;;;;;;;;;;;;;23.87;41.25;95308.53;10296685;28;1941;-64
2023/06/13 05:11:27;;;;;;;;;;;;;;;23.88;41.29;95318.06;10303257;28;1970;-65
2023/06/13 05:16:30;;;;;;;;;;;;;;;23.88;41.31;95326.00;10302617;28;2456;-64
2023/06/13 05:21:31;;;;;;;;;;;;;;;23.89;41.48;95324.91;10303059;28;1906;-66
2023/06/13 05:26:32;;;;;;;;;;;;;;;23.90;41.58;95320.38;10306543;28;1902;-67
2023/06/13 05:31:33;;;;;;;;;;;;;;;23.91;41.53;95322.72;10303447;28;1874;-67
2023/06/13 05:36:34;;;;;;;;;;;;;;;23.91;41.73;95325.38;10308542;28;1925;-66
2023/06/13 05:41:36;;;;;;;;;;;;;;;23.92;41.78;95321.66;10313295;28;4719;-66
2023/06/13 05:46:36;;;;;;;;;;;;;;;23.93;41.72;95325.84;10308981;28;1890;-67
2023/06/13 05:51:36;;;;;;;;;;;;;;;23.93;41.87;95317.91;10307612;28;1902;-67
2023/06/13 05:56:37;;;;;;;;;;;;;;;23.94;41.79;95316.03;10307661;28;1993;-67
2023/06/13 06:01:40;;;;;;;;;;;;;;;23.94;41.79;95318.69;10303840;28;1926;-67
2023/06/13 06:06:40;;;;;;;;;;;;;;;23.93;41.60;95323.19;10288533;28;1960;-67
2023/06/13 06:11:41;;;;;;;;;;;;;;;23.93;41.79;95330.34;10304488;28;1910;-66
2023/06/13 06:16:41;;;;;;;;;;;;;;;23.92;41.51;95316.34;10300611;28;2401;-67
2023/06/13 06:21:41;;;;;;;;;;;;;;;23.93;41.55;95323.19;10297088;28;1978;-67
2023/06/13 06:26:41;;;;;;;;;;;;;;;23.93;41.83;95328.50;10297207;28;2438;-67
2023/06/13 06:31:42;;;;;;;;;;;;;;;23.91;41.64;95325.38;10306094;28;1974;-67
2023/06/13 06:36:42;;;;;;;;;;;;;;;23.92;41.54;95326.94;10294061;28;1882;-67
2023/06/13 06:41:42;;;;;;;;;;;;;;;23.90;41.67;95323.81;10301914;28;4479;-67
2023/06/13 06:46:43;;;;;;;;;;;;;;;23.92;41.66;95323.50;10308617;28;1950;-67
2023/06/13 06:51:43;;;;;;;;;;;;;;;23.91;41.61;95320.06;10300210;28;1910;-67
2023/06/13 06:56:43;;;;;;;;;;;;;;;23.91;41.57;95325.38;10291116;28;1963;-67
2023/06/13 07:01:44;;;;;;;;;;;;;;;23.90;41.32;95321.19;10302487;28;1953;-67
2023/06/13 07:06:44;;;;;;;;;;;;;;;23.89;41.47;95316.94;10299213;28;1917;-67
2023/06/13 07:11:45;;;;;;;;;;;;;;;23.90;41.32;95321.19;10303674;28;2490;-67
2023/06/13 07:16:45;;;;;;;;;;;;;;;23.90;41.70;95318.53;10305794;28;1878;-67
2023/06/13 07:21:45;;;;;;;;;;;;;;;23.90;41.31;95315.88;10301603;28;1886;-65
2023/06/13 07:26:46;;;;;;;;;;;;;;;23.89;41.26;95319.59;10299924;28;2086;-68
2023/06/13 07:31:46;;;;;;;;;;;;;;;23.89;41.34;95310.88;10300810;28;1846;-67
2023/06/13 07:36:47;;;;;;;;;;;;;;;23.90;41.37;95312.44;10297486;28;1910;-66
2023/06/13 07:41:49;;;;;;;;;;;;;;;23.89;41.46;95311.66;10298312;28;2031;-66
2023/06/13 07:46:50;;;;;;;;;;;;;;;23.89;41.51;95310.88;10305011;28;2109;-67
2023/06/13 07:51:50;;;;;;;;;;;;;;;23.88;41.47;95310.13;10303447;28;2090;-66
2023/06/13 07:56:51;;;;;;;;;;;;;;;23.89;41.61;95309.00;10279604;28;1910;-66
2023/06/13 08:01:52;;;;;;;;;;;;;;;23.88;41.26;95298.75;10302301;28;1931;-65
2023/06/13 08:06:52;;;;;;;;;;;;;;;23.88;41.42;95304.81;10298161;28;1989;-66
2023/06/13 08:11:53;;;;;;;;;;;;;;;23.89;41.42;95305.56;10297342;28;1974;-66
2023/06/13 08:16:54;;;;;;;;;;;;;;;23.88;41.59;95299.53;10295355;28;2074;-66
2023/06/13 08:21:54;;;;;;;;;;;;;;;23.88;41.46;95310.13;10296360;28;1905;-65
2023/06/13 08:26:55;;;;;;;;;;;;;;;23.88;41.56;95301.38;10302032;28;1913;-66
2023/06/13 08:31:55;;;;;;;;;;;;;;;23.87;41.52;95308.53;10284156;28;2028;-66
2023/06/13 08:36:56;;;;;;;;;;;;;;;23.86;41.59;95312.28;10297107;28;1921;-66
2023/06/13 08:41:56;;;;;;;;;;;;;;;23.87;41.27;95311.19;10290173;28;4508;-66
2023/06/13 08:46:57;;;;;;;;;;;;;;;23.85;41.47;95318.66;10312054;28;2116;-66
2023/06/13 08:51:57;;;;;;;;;;;;;;;23.87;41.42;95332.38;10313190;28;2066;-65
2023/06/13 08:56:58;;;;;;;;;;;;;;;23.85;41.43;95321.28;10315299;28;1887;-66
2023/06/13 09:01:58;;;;;;;;;;;;;;;23.84;41.46;95311.81;10308125;28;2334;-66
2023/06/13 09:06:58;;;;;;;;;;;;;;;23.85;41.33;95315.22;10313459;28;1976;-66
2023/06/13 09:11:58;;;;;;;;;;;;;;;23.85;41.49;95321.28;10310865;28;2106;-66
2023/06/13 09:16:59;;;;;;;;;;;;;;;23.85;41.50;95316.00;10309308;28;1883;-63
2023/06/13 09:21:59;;;;;;;;;;;;;;;23.86;41.40;95316.78;10296248;28;1922;-65
2023/06/13 09:27:01;;;;;;;;;;;;;;;23.85;41.36;95310.72;10308288;28;2093;-66
2023/06/13 09:32:01;;;;;;;;;;;;;;;23.85;41.06;95305.41;10318521;28;1858;-65
2023/06/13 09:37:02;;;;;;;;;;;;;;;23.85;41.41;95294.03;10307878;28;1816;-66
2023/06/13 09:42:02;;;;;;;;;;;;;;;23.85;41.13;95289.53;10317891;28;4503;-66
2023/06/13 09:47:03;;;;;;;;;;;;;;;23.85;41.22;95299.34;10294531;28;1988;-66
2023/06/13 09:52:03;;;;;;;;;;;;;;;23.85;41.21;95288.75;10305956;28;2066;-66
2023/06/13 09:57:03;;;;;;;;;;;;;;;23.86;41.26;95285.03;10295829;28;1906;-66
2023/06/13 10:02:04;;;;;;;;;;;;;;;23.86;41.13;95277.88;10301902;28;2250;-66
2023/06/13 10:07:05;;;;;;;;;;;;;;;23.83;41.07;95273.19;10304125;28;1982;-66
2023/06/13 10:12:07;;;;;;;;;;;;;;;23.85;41.21;95273.66;10298520;28;1926;-66
2023/06/13 10:17:08;;;;;;;;;;;;;;;23.85;41.22;95278.94;10292788;28;1897;-66
2023/06/13 10:22:08;;;;;;;;;;;;;;;23.85;41.07;95276.31;10297427;28;2055;-65
2023/06/13 10:27:09;;;;;;;;;;;;;;;23.85;40.93;95271.00;10287103;28;1963;-66
2023/06/13 10:32:28;;;;;;;;;;;;;;;23.86;41.13;95261.22;10287390;28;2008;-66
2023/06/13 10:37:41;;;;;;;;;;;;;;;23.85;41.26;95259.63;10306917;28;1882;-66
2023/06/13 10:42:50;;;;;;;;;;;;;;;23.86;41.25;95262.00;10302024;28;2074;-66
2023/06/13 10:47:53;;;;;;;;;;;;;;;23.86;41.01;95259.34;10287395;28;2135;-66
2023/06/13 10:52:56;;;;;;;;;;;;;;;23.86;40.86;95266.50;10299156;28;2015;-66
2023/06/13 10:57:56;;;;;;;;;;;;;;;23.85;40.94;95255.13;10285488;28;2489;-65
2023/06/13 11:03:00;;;;;;;;;;;;;;;23.87;40.94;95254.81;10301082;28;2012;-66
2023/06/13 11:08:00;;;;;;;;;;;;;;;23.86;40.92;95245.31;10300436;28;2081;-66
2023/06/13 11:13:04;;;;;;;;;;;;;;;23.85;41.14;95236.59;10294440;28;1967;-66
2023/06/13 11:18:04;;;;;;;;;;;;;;;23.86;41.00;95238.16;10281954;28;1900;-66
2023/06/13 11:23:04;;;;;;;;;;;;;;;23.86;40.99;95242.69;10297769;28;2215;-66
2023/06/13 11:28:05;;;;;;;;;;;;;;;23.85;41.02;95226.00;10284531;28;1944;-66
2023/06/13 11:33:05;;;;;;;;;;;;;;;23.85;40.74;95228.66;10290361;28;1910;-66
2023/06/13 11:38:07;;;;;;;;;;;;;;;23.86;40.92;95229.44;10296885;28;1977;-67
2023/06/13 11:43:07;;;;;;;;;;;;;;;23.86;41.04;95226.78;10295860;28;1948;-65
2023/06/13 11:48:11;;;;;;;;;;;;;;;23.86;40.93;95227.59;10313883;28;2129;-67
2023/06/13 11:53:11;;;;;;;;;;;;;;;23.86;40.79;95229.44;10310246;28;2297;-65
2023/06/13 11:58:12;;;;;;;;;;;;;;;23.87;40.77;95223.03;10318984;28;1487;-65
2023/06/13 12:03:12;;;;;;;;;;;;;;;23.86;40.93;95217.00;10305129;28;1883;-68
2023/06/13 12:08:13;;;;;;;;;;;;;;;23.86;40.92;95211.69;10296313;28;2144;-66
2023/06/13 12:13:16;;;;;;;;;;;;;;;23.87;40.85;95207.94;10303221;28;1895;-67
2023/06/13 12:18:17;;;;;;;;;;;;;;;23.87;40.98;95212.47;10293717;28;1984;-66
2023/06/13 12:23:17;;;;;;;;;;;;;;;23.86;41.05;95201.13;10298262;28;1959;-65
2023/06/13 12:28:18;;;;;;;;;;;;;;;23.86;40.72;95200.31;10282099;28;2111;-67
2023/06/13 12:33:23;;;;;;;;;;;;;;;23.87;40.85;95204.53;10299224;28;1913;-67
2023/06/13 12:38:25;;;;;;;;;;;;;;;23.87;40.87;95196.56;10299596;28;1891;-67
2023/06/13 12:43:26;;;;;;;;;;;;;;;23.87;41.10;95196.56;10282505;28;4512;-67
2023/06/13 12:48:26;;;;;;;;;;;;;;;23.87;41.04;95192.06;10294733;28;2273;-67
2023/06/13 12:53:26;;;;;;;;;;;;;;;23.86;41.08;95185.22;10298642;28;1938;-68
2023/06/13 12:58:27;;;;;;;;;;;;;;;23.88;40.96;95176.97;10298494;28;1919;-67
2023/06/13 13:03:28;;;;;;;;;;;;;;;23.88;40.68;95176.97;10301342;28;2030;-67
2023/06/13 13:08:28;;;;;;;;;;;;;;;23.88;40.98;95175.13;10297248;28;1944;-66
2023/06/13 13:13:29;;;;;;;;;;;;;;;23.88;41.00;95172.47;10296422;28;1881;-66
2023/06/13 13:18:29;;;;;;;;;;;;;;;23.88;40.99;95161.09;10297975;28;1934;-65
2023/06/13 13:23:30;;;;;;;;;;;;;;;23.87;41.03;95149.72;10299689;28;2010;-65
2023/06/13 13:28:30;;;;;;;;;;;;;;;23.87;40.82;95152.38;10298538;28;1914;-68
2023/06/13 13:33:30;;;;;;;;;;;;;;;23.87;40.76;95141.78;10300241;28;1896;-67
2023/06/13 13:38:31;;;;;;;;;;;;;;;23.88;40.93;95140.72;10306533;28;1882;-66
2023/06/13 13:43:33;;;;;;;;;;;;;;;23.88;40.82;95138.06;10299223;28;4515;-66
2023/06/13 13:48:33;;;;;;;;;;;;;;;23.88;40.91;95142.56;10300615;28;1922;-66
2023/06/13 13:53:33;;;;;;;;;;;;;;;23.88;40.83;95139.91;10307488;28;1848;-66
2023/06/13 13:58:34;;;;;;;;;;;;;;;23.87;40.87;95139.13;10303808;28;1913;-67
2023/06/13 14:03:34;;;;;;;;;;;;;;;23.88;40.90;95131.97;10297724;28;1906;-67
2023/06/13 14:08:35;;;;;;;;;;;;;;;23.87;40.98;95133.84;10290094;28;1904;-65
2023/06/13 14:13:36;;;;;;;;;;;;;;;23.89;40.71;95126.38;10303111;28;1917;-67
2023/06/13 14:18:36;;;;;;;;;;;;;;;23.89;40.76;95136.16;10304407;28;2014;-66
2023/06/13 14:23:36;;;;;;;;;;;;;;;23.89;40.77;95125.59;10302820;28;2168;-67
2023/06/13 14:28:38;;;;;;;;;;;;;;;23.89;40.84;95134.31;10302200;28;1850;-67
2023/06/13 14:33:39;;;;;;;;;;;;;;;23.86;40.17;95121.72;10296888;28;1923;-65
2023/06/13 14:38:41;;;;;;;;;;;;;;;23.85;39.57;95109.53;10304639;28;2117;-66
2023/06/13 14:43:42;;;;;;;;;;;;;;;23.82;38.65;95114.69;10305979;28;4567;-66
2023/06/13 14:48:42;;;;;;;;;;;;;;;23.80;38.77;95111.56;10308650;28;1963;-66
2023/06/13 14:53:42;;;;;;;;;;;;;;;23.80;39.15;95114.97;10304964;28;1919;-66
2023/06/13 14:58:43;;;;;;;;;;;;;;;23.81;39.28;95105.97;10299655;28;1850;-67
2023/06/13 15:03:46;;;;;;;;;;;;;;;23.80;39.42;95101.75;10297152;28;1931;-67
2023/06/13 15:08:46;;;;;;;;;;;;;;;23.80;39.43;95106.28;10297103;28;1946;-68
2023/06/13 15:13:47;;;;;;;;;;;;;;;23.81;39.71;95094.59;10299303;28;1824;-68
2023/06/13 15:18:47;;;;;;;;;;;;;;;23.81;39.78;95098.03;10282705;28;1900;-68
2023/06/13 15:23:47;;;;;;;;;;;;;;;23.81;39.46;95087.44;10280716;28;1906;-67
2023/06/13 15:28:49;;;;;;;;;;;;;;;23.81;39.68;95092.72;10297516;28;1946;-67
2023/06/13 15:33:49;;;;;;;;;;;;;;;23.82;39.77;95088.97;10298294;28;1905;-67
2023/06/13 15:38:50;;;;;;;;;;;;;;;23.81;39.63;95090.09;10281929;28;2266;-67
2023/06/13 15:43:50;;;;;;;;;;;;;;;23.83;39.90;95092.41;10296205;28;1879;-68
2023/06/13 15:48:50;;;;;;;;;;;;;;;23.83;39.76;95085.25;10312388;28;2600;-68
2023/06/13 15:53:51;;;;;;;;;;;;;;;23.82;39.82;95091.63;10296777;28;1874;-68
2023/06/13 15:58:51;;;;;;;;;;;;;;;23.85;40.00;95090.22;10297575;28;1874;-68
2023/06/13 16:03:51;;;;;;;;;;;;;;;23.83;40.10;95095.84;10294142;28;1958;-68
2023/06/13 16:08:51;;;;;;;;;;;;;;;23.84;39.87;95101.94;10295872;28;1756;-68
2023/06/13 16:13:52;;;;;;;;;;;;;;;23.85;40.09;95104.25;10293721;28;1876;-68
2023/06/13 16:18:52;;;;;;;;;;;;;;;23.86;40.00;95097.09;10297782;28;1869;-68
2023/06/13 16:23:52;;;;;;;;;;;;;;;23.84;40.09;95092.13;10293989;28;1906;-67
2023/06/13 16:28:52;;;;;;;;;;;;;;;23.84;39.90;95096.63;10291702;28;1974;-67
2023/06/13 16:33:53;;;;;;;;;;;;;;;23.83;40.04;95095.84;10291801;28;2289;-68
2023/06/13 16:38:53;;;;;;;;;;;;;;;23.84;39.85;95096.63;10302127;28;1949;-67
2023/06/13 16:43:54;;;;;;;;;;;;;;;23.83;40.15;95095.84;10298554;28;4558;-68
2023/06/13 16:48:54;;;;;;;;;;;;;;;23.84;40.22;95100.06;10297171;28;1897;-66
2023/06/13 16:53:54;;;;;;;;;;;;;;;23.83;39.92;95100.34;10281254;28;1920;-66
2023/06/13 16:58:54;;;;;;;;;;;;;;;23.83;40.17;95103.78;10294109;28;1930;-66
2023/06/13 17:03:55;;;;;;;;;;;;;;;23.79;39.01;95094.13;10304659;28;2113;-66
2023/06/13 17:08:55;;;;;;;;;;;;;;;23.70;37.13;95102.03;10311154;28;2056;-66
2023/06/13 17:13:57;;;;;;;;;;;;;;;23.61;36.35;95098.63;10303433;28;1855;-67
2023/06/13 17:18:57;;;;;;;;;;;;;;;23.60;36.90;95104.97;10291770;28;2091;-66
2023/06/13 17:23:57;;;;;;;;;;;;;;;23.58;36.60;95106.38;10299670;28;2066;-67
2023/06/13 17:28:57;;;;;;;;;;;;;;;23.54;36.51;95108.84;10303964;28;1910;-68
2023/06/13 17:33:58;;;;;;;;;;;;;;;23.51;35.85;95106.84;10306590;28;1921;-68
2023/06/13 17:38:58;;;;;;;;;;;;;;;23.54;36.61;95108.84;10298406;28;1914;-67
2023/06/13 17:43:58;;;;;;;;;;;;;;;23.55;36.83;95115.72;10298318;28;4610;-66
2023/06/13 17:48:58;;;;;;;;;;;;;;;23.55;37.38;95110.44;10307180;28;1891;-66
2023/06/13 17:53:59;;;;;;;;;;;;;;;23.58;37.61;95117.72;10306475;28;1963;-68
2023/06/13 17:58:59;;;;;;;;;;;;;;;23.60;37.86;95112.91;10312369;28;1958;-68
2023/06/13 18:04:00;;;;;;;;;;;;;;;23.63;38.22;95114.97;10303464;28;2022;-67
2023/06/13 18:09:00;;;;;;;;;;;;;;;23.65;38.11;95119.94;10306881;28;1958;-67
2023/06/13 18:14:02;;;;;;;;;;;;;;;23.67;38.42;95118.56;10300380;28;2082;-67
2023/06/13 18:19:03;;;;;;;;;;;;;;;23.68;38.20;95130.69;10303330;28;1941;-66
2023/06/13 18:24:05;;;;;;;;;;;;;;;23.68;38.37;95122.75;10301951;28;2316;-67
2023/06/13 18:29:05;;;;;;;;;;;;;;;23.69;38.41;95126.97;10297465;28;1998;-66
2023/06/13 18:34:05;;;;;;;;;;;;;;;23.70;38.58;95123.22;10304751;28;2065;-67
2023/06/13 18:39:06;;;;;;;;;;;;;;;23.71;38.52;95124.00;10309101;28;2097;-67
2023/06/13 18:44:10;;;;;;;;;;;;;;;23.71;38.91;95135.38;10302432;28;4574;-67
2023/06/13 18:49:10;;;;;;;;;;;;;;;23.71;38.85;95140.66;10276321;28;1892;-67
2023/06/13 18:54:11;;;;;;;;;;;;;;;23.71;38.65;95145.94;10299825;28;1957;-68
2023/06/13 18:59:11;;;;;;;;;;;;;;;23.72;39.00;95152.78;10305452;28;1962;-65
2023/06/13 19:04:11;;;;;;;;;;;;;;;23.72;38.64;95152.78;10302695;28;1967;-65
2023/06/13 19:09:15;;;;;;;;;;;;;;;23.73;38.83;95158.88;10300986;28;1859;-65
2023/06/13 19:14:16;;;;;;;;;;;;;;;23.73;38.99;95164.94;10305730;28;1939;-65
2023/06/13 19:19:16;;;;;;;;;;;;;;;23.74;38.85;95160.44;10304228;28;1981;-64
2023/06/13 19:24:16;;;;;;;;;;;;;;;23.74;38.97;95160.44;10304382;28;2305;-65
2023/06/13 19:29:17;;;;;;;;;;;;;;;23.74;38.90;95169.13;10300495;28;1852;-66
2023/06/13 19:34:17;;;;;;;;;;;;;;;23.73;39.04;95170.25;10301916;28;1893;-66
2023/06/13 19:39:17;;;;;;;;;;;;;;;23.74;39.39;95185.00;10303491;28;1975;-67
2023/06/13 19:44:17;;;;;;;;;;;;;;;23.76;39.92;95182.84;10300187;28;4570;-66
2023/06/13 19:49:19;;;;;;;;;;;;;;;23.78;39.67;95185.22;10298072;28;1902;-67
2023/06/13 19:54:19;;;;;;;;;;;;;;;23.74;38.56;95192.94;10297073;28;1888;-66
2023/06/13 19:59:21;;;;;;;;;;;;;;;23.67;37.38;95200.56;10288283;28;1914;-67
2023/06/13 20:04:23;;;;;;;;;;;;;;;23.56;35.93;95190.56;10301101;28;2034;-66
2023/06/13 20:09:23;;;;;;;;;;;;;;;23.50;35.34;95189.91;10295743;28;1969;-66
2023/06/13 20:14:24;;;;;;;;;;;;;;;23.43;34.70;95193.00;10301999;28;1883;-65
2023/06/13 20:19:25;;;;;;;;;;;;;;;23.35;34.28;95196.38;10298900;28;2257;-64
2023/06/13 20:24:25;;;;;;;;;;;;;;;23.32;34.01;95201.50;10304998;28;1891;-68
2023/06/13 20:29:26;;;;;;;;;;;;;;;23.31;34.09;95210.47;10301665;28;1922;-68
2023/06/13 20:34:26;;;;;;;;;;;;;;;23.27;34.06;95204.25;10301555;28;1909;-65
2023/06/13 20:39:27;;;;;;;;;;;;;;;23.25;33.61;95198.47;10303110;28;1971;-65
2023/06/13 20:44:28;;;;;;;;;;;;;;;23.25;34.31;95196.63;10303108;28;4682;-66
2023/06/13 20:49:30;;;;;;;;;;;;;;;23.28;34.37;95193.38;10297632;28;1858;-66
2023/06/13 20:54:32;;;;;;;;;;;;;;;23.29;34.19;95191.50;10297618;28;1858;-65
2023/06/13 20:59:32;;;;;;;;;;;;;;;23.29;34.15;95199.44;10300683;28;1965;-65
2023/06/13 21:04:32;;;;;;;;;;;;;;;23.29;34.04;95204.72;10297886;28;1968;-65
2023/06/13 21:09:32;;;;;;;;;;;;;;;23.29;34.11;95199.44;10297743;28;2082;-64
2023/06/13 21:14:33;;;;;;;;;;;;;;;23.29;34.35;95202.84;10298594;28;2375;-65
2023/06/13 21:19:34;;;;;;;;;;;;;;;23.30;34.33;95203.66;10301101;28;1885;-65
2023/06/13 21:24:34;;;;;;;;;;;;;;;23.30;34.37;95207.06;10302720;28;1984;-65
2023/06/13 21:29:35;;;;;;;;;;;;;;;23.30;34.19;95212.38;10299845;28;2059;-64
2023/06/13 21:34:35;;;;;;;;;;;;;;;23.31;34.35;95213.91;10302815;28;1965;-63
2023/06/13 21:39:35;;;;;;;;;;;;;;;23.31;34.44;95215.78;10301335;28;1902;-63
2023/06/13 21:44:36;;;;;;;;;;;;;;;23.31;34.61;95221.84;10300258;28;4737;-64
2023/06/13 21:49:36;;;;;;;;;;;;;;;23.31;34.28;95221.06;10303455;28;1832;-64
2023/06/13 21:54:36;;;;;;;;;;;;;;;23.30;34.21;95220.31;10275409;28;2030;-64
2023/06/13 21:59:37;;;;;;;;;;;;;;;23.30;34.26;95224.81;10303739;28;1877;-65
2023/06/13 22:04:37;;;;;;;;;;;;;;;23.31;34.45;95231.63;10276356;28;1906;-65
2023/06/13 22:09:37;;;;;;;;;;;;;;;23.31;34.49;95231.63;10303739;28;1878;-65
2023/06/13 22:14:40;;;;;;;;;;;;;;;23.31;34.49;95229.00;10302256;28;1966;-64
2023/06/13 22:19:43;;;;;;;;;;;;;;;23.30;34.58;95228.22;10303094;28;1835;-65
2023/06/13 22:24:43;;;;;;;;;;;;;;;23.30;34.35;95214.22;10302842;28;1976;-65
2023/06/13 22:29:45;;;;;;;;;;;;;;;23.29;34.47;95218.72;10307703;28;2022;-64
2023/06/13 22:34:45;;;;;;;;;;;;;;;23.29;34.36;95220.59;10308495;28;2005;-65
2023/06/13 22:39:46;;;;;;;;;;;;;;;23.30;34.51;95224.81;10300540;28;1952;-65
2023/06/13 22:44:46;;;;;;;;;;;;;;;23.29;34.79;95228.50;10299724;28;1972;-65
2023/06/13 22:49:50;;;;;;;;;;;;;;;23.29;34.51;95220.59;10298083;28;1933;-65
2023/06/13 22:54:50;;;;;;;;;;;;;;;23.29;34.52;95223.22;10302711;28;1848;-65
2023/06/13 22:59:51;;;;;;;;;;;;;;;23.29;34.59;95217.94;10304594;28;1933;-66
2023/06/13 23:04:52;;;;;;;;;;;;;;;23.29;34.75;95223.22;10301180;28;1899;-65
2023/06/13 23:09:53;;;;;;;;;;;;;;;23.29;34.85;95215.28;10304805;28;2792;-65
2023/06/13 23:14:54;;;;;;;;;;;;;;;23.29;34.72;95213.44;10297158;28;1984;-65
2023/06/13 23:19:56;;;;;;;;;;;;;;;23.28;34.65;95211.09;10306892;28;1912;-66
2023/06/13 23:24:57;;;;;;;;;;;;;;;23.27;34.93;95214.81;10302264;28;1990;-65
2023/06/13 23:30:02;;;;;;;;;;;;;;;23.27;34.74;95209.53;10303624;28;1874;-66
2023/06/13 23:35:04;;;;;;;;;;;;;;;23.26;34.86;95206.13;10305418;28;1975;-66
2023/06/13 23:40:06;;;;;;;;;;;;;;;23.25;35.02;95207.19;10304737;28;4515;-66
2023/06/13 23:45:06;;;;;;;;;;;;;;;23.24;34.96;95210.16;10297383;28;1919;-66
2023/06/13 23:50:07;;;;;;;;;;;;;;;23.23;34.48;95198.00;10302959;28;2161;-65
2023/06/13 23:55:08;;;;;;;;;;;;;;;23.22;34.63;95196.44;10302524;28;1957;-66
